1860 NOT_NAMED (1860061S13085)


IBTrACS version v04r00. Visit IBTrACS website for data access.
Please direct all questions to the IBTrACS Q and A forum

Storm track - Intensity - Wind Radii - Intensity Data - Source Data - All data

Summary Information

Storm ID 1860061S13085
Start Mar 1 06Z
End Mar 8 06Z
ATCF IDs
Track status Best track data.
Spur track This storm is a spur track associated with the main storm: 1860061S13085

Storm track plot

Map of storm track

Intensity plots

No Intensity information for this storm


Radial wind information

No radial wind information for this storm


Position and Intensity Table

BASIN ISO_TIME_________ NATURE LAT LON
degrees north degrees east
SI 1860-03-01 06:00:00 NR -13.20 85.10
SI 09:00:00 NR -13.29 84.96
SI 12:00:00 NR -13.37 84.82
SI 15:00:00 NR -13.46 84.65
SI 18:00:00 NR -13.55 84.46
SI 21:00:00 NR -13.63 84.24
SI 1860-03-02 00:00:00 NR -13.72 83.98
SI 03:00:00 NR -13.81 83.67
SI 06:00:00 NR -13.90 83.30
SI 09:00:00 NR -13.99 82.87
SI 12:00:00 NR -14.08 82.38
SI 15:00:00 NR -14.18 81.83
SI 18:00:00 NR -14.30 81.24
SI 21:00:00 NR -14.42 80.62
SI 1860-03-03 00:00:00 NR -14.56 79.97
SI 03:00:00 NR -14.72 79.29
SI 06:00:00 NR -14.90 78.60
SI 09:00:00 NR -15.11 77.90
SI 12:00:00 NR -15.34 77.17
SI 15:00:00 NR -15.58 76.42
SI 18:00:00 NR -15.85 75.67
SI 21:00:00 NR -16.13 74.92
SI 1860-03-04 00:00:00 NR -16.41 74.19
SI 03:00:00 NR -16.70 73.48
SI 06:00:00 NR -17.00 72.80
SI 09:00:00 NR -17.27 72.17
SI 12:00:00 NR -17.54 71.58
SI 15:00:00 NR -17.82 71.01
SI 18:00:00 NR -18.11 70.47
SI 21:00:00 NR -18.41 69.95
SI 1860-03-05 00:00:00 NR -18.73 69.45
SI 03:00:00 NR -19.06 68.97
SI 06:00:00 NR -19.40 68.50
SI 09:00:00 NR -19.75 67.99
SI 12:00:00 NR -20.13 67.50
SI 15:00:00 NR -20.51 67.02
SI 18:00:00 NR -20.91 66.57
SI 21:00:00 NR -21.32 66.15
SI 1860-03-06 00:00:00 NR -21.74 65.76
SI 03:00:00 NR -22.17 65.41
SI 06:00:00 NR -22.60 65.10
SI 09:00:00 NR -23.06 64.88
SI 12:00:00 NR -23.52 64.71
SI 15:00:00 NR -24.00 64.58
SI 18:00:00 NR -24.47 64.47
SI 21:00:00 NR -24.93 64.36
SI 1860-03-07 00:00:00 NR -25.38 64.24
SI 03:00:00 NR -25.80 64.09
SI 06:00:00 NR -26.20 63.90
SI 09:00:00 NR -26.56 63.65
SI 12:00:00 NR -26.89 63.35
SI 15:00:00 NR -27.18 63.00
SI 18:00:00 NR -27.46 62.61
SI 21:00:00 NR -27.71 62.18
SI 1860-03-08 00:00:00 NR -27.95 61.74
SI 03:00:00 NR -28.18 61.27
SI 06:00:00 NR -28.40 60.80

Source Information

Agency Information
USA
TOKYO
CMA
HKO
NEWDELHI
REUNION WMO-Best-Tracks.txt:Line=284:xxxx860043
BOM
NADI
WELLINGTON
DS824
TD9636
TD9635
NEUMANN
MLC

All available IBTrACS Data

SEASON BASIN SUBBASIN ISO_TIME_________ NATURE LAT LON WMO AGENCY DIST2LAND LANDFALL IFLAG USA SSHS REUNION LAT REUNION LON REUNION TYPE REUNION TNUM STORM SPEED STORM DIR
Year degrees north degrees east km km 1 degrees north degrees east 1 kts degrees
1860 SI MM 1860-03-01 06:00:00 NR -13.20 85.10 1992 1992 _____O________ -1 -13.20 85.10 99 9.90 3 238
1860 SI MM 09:00:00 NR -13.29 84.96 2008 2008 _____P________ -1 -13.29 84.96 99 3 238
1860 SI MM 12:00:00 NR -13.37 84.82 2031 2031 _____P________ -1 -13.37 84.82 99 3 240
1860 SI MM 15:00:00 NR -13.46 84.65 2047 2047 _____P________ -1 -13.46 84.65 99 4 243
1860 SI MM 18:00:00 NR -13.55 84.46 2064 2064 _____P________ -1 -13.55 84.46 99 4 246
1860 SI MM 21:00:00 NR -13.63 84.24 2096 2096 _____P________ -1 -13.63 84.24 99 5 250
1860 SI MM 1860-03-02 00:00:00 NR -13.72 83.98 2120 2120 _____P________ -1 -13.72 83.98 99 6 252
1860 SI MM 03:00:00 NR -13.81 83.67 2153 2153 _____P________ -1 -13.81 83.67 99 7 255
1860 SI MM 06:00:00 NR -13.90 83.30 2194 2194 _____O________ -1 -13.90 83.30 99 9.90 8 257
1860 SI MM 09:00:00 NR -13.99 82.87 2235 2235 _____P________ -1 -13.99 82.87 99 9 258
1860 SI MM 12:00:00 NR -14.08 82.38 2249 2246 _____P________ -1 -14.08 82.38 99 10 259
1860 SI MM 15:00:00 NR -14.18 81.83 2255 2254 _____P________ -1 -14.18 81.83 99 11 259
1860 SI MM 18:00:00 NR -14.30 81.24 2264 2263 _____P________ -1 -14.30 81.24 99 12 259
1860 SI MM 21:00:00 NR -14.42 80.62 2274 2274 _____P________ -1 -14.42 80.62 99 13 258
1860 SI MM 1860-03-03 00:00:00 NR -14.56 79.97 2297 2297 _____P________ -1 -14.56 79.97 99 13 257
1860 SI MM 03:00:00 NR -14.72 79.29 2312 2284 _____P________ -1 -14.72 79.29 99 14 256
1860 SI MM 06:00:00 NR -14.90 78.60 reunion 2284 2205 _____O________ -1 -14.90 78.60 99 9.90 14 254
1860 SI MM 09:00:00 NR -15.11 77.90 2205 2127 _____P________ -1 -15.11 77.90 99 15 252
1860 SI MM 12:00:00 NR -15.34 77.17 2127 2045 _____P________ -1 -15.34 77.17 99 15 251
1860 SI MM 15:00:00 NR -15.58 76.42 2035 1957 _____P________ -1 -15.58 76.42 99 15 250
1860 SI MM 18:00:00 NR -15.85 75.67 1957 1875 _____P________ -1 -15.85 75.67 99 15 249
1860 SI MM 21:00:00 NR -16.13 74.92 1865 1784 _____P________ -1 -16.13 74.92 99 15 248
1860 SI MM 1860-03-04 00:00:00 NR -16.41 74.19 1784 1703 _____P________ -1 -16.41 74.19 99 15 247
1860 SI MM 03:00:00 NR -16.70 73.48 1703 1622 _____P________ -1 -16.70 73.48 99 15 246
1860 SI MM 06:00:00 NR -17.00 72.80 reunion 1622 1551 _____O________ -1 -17.00 72.80 99 9.90 14 246
1860 SI MM 09:00:00 NR -17.27 72.17 1551 1484 _____P________ -1 -17.27 72.17 99 13 245
1860 SI MM 12:00:00 NR -17.54 71.58 1484 1414 _____P________ -1 -17.54 71.58 99 12 243
1860 SI MM 15:00:00 NR -17.82 71.01 1414 1355 _____P________ -1 -17.82 71.01 99 12 242
1860 SI MM 18:00:00 NR -18.11 70.47 1355 1297 _____P________ -1 -18.11 70.47 99 12 240
1860 SI MM 21:00:00 NR -18.41 69.95 1286 1239 _____P________ -1 -18.41 69.95 99 11 238
1860 SI MM 1860-03-05 00:00:00 NR -18.73 69.45 1228 1181 _____P________ -1 -18.73 69.45 99 11 235
1860 SI MM 03:00:00 NR -19.06 68.97 1179 1123 _____P________ -1 -19.06 68.97 99 11 233
1860 SI MM 06:00:00 NR -19.40 68.50 reunion 1123 1067 _____O________ -1 -19.40 68.50 99 9.90 12 233
1860 SI MM 09:00:00 NR -19.75 67.99 1066 1012 _____P________ -1 -19.75 67.99 99 12 232
1860 SI MM 12:00:00 NR -20.13 67.50 1012 958 _____P________ -1 -20.13 67.50 99 12 230
1860 SI MM 15:00:00 NR -20.51 67.02 958 917 _____P________ -1 -20.51 67.02 99 12 228
1860 SI MM 18:00:00 NR -20.91 66.57 918 878 _____P________ -1 -20.91 66.57 99 12 225
1860 SI MM 21:00:00 NR -21.32 66.15 869 843 _____P________ -1 -21.32 66.15 99 11 222
1860 SI MM 1860-03-06 00:00:00 NR -21.74 65.76 844 812 _____P________ -1 -21.74 65.76 99 11 219
1860 SI MM 03:00:00 NR -22.17 65.41 815 794 _____P________ -1 -22.17 65.41 99 11 215
1860 SI MM 06:00:00 NR -22.60 65.10 reunion 797 789 _____O________ -1 -22.60 65.10 99 9.90 10 209
1860 SI MM 09:00:00 NR -23.06 64.88 797 787 _____P________ -1 -23.06 64.88 99 10 201
1860 SI MM 12:00:00 NR -23.52 64.71 795 795 _____P________ -1 -23.52 64.71 99 10 196
1860 SI MM 15:00:00 NR -24.00 64.58 810 806 _____P________ -1 -24.00 64.58 99 10 193
1860 SI MM 18:00:00 NR -24.47 64.47 828 820 _____P________ -1 -24.47 64.47 99 10 192
1860 SI MM 21:00:00 NR -24.93 64.36 844 842 _____P________ -1 -24.93 64.36 99 9 193
1860 SI MM 1860-03-07 00:00:00 NR -25.38 64.24 861 861 _____P________ -1 -25.38 64.24 99 9 195
1860 SI MM 03:00:00 NR -25.80 64.09 882 882 _____P________ -1 -25.80 64.09 99 9 201
1860 SI MM 06:00:00 NR -26.20 63.90 reunion 897 897 _____O________ -1 -26.20 63.90 99 9.90 9 208
1860 SI MM 09:00:00 NR -26.56 63.65 915 908 _____P________ -1 -26.56 63.65 99 8 216
1860 SI MM 12:00:00 NR -26.89 63.35 914 914 _____P________ -1 -26.89 63.35 99 9 223
1860 SI MM 15:00:00 NR -27.18 63.00 922 916 _____P________ -1 -27.18 63.00 99 9 229
1860 SI MM 18:00:00 NR -27.46 62.61 926 920 _____P________ -1 -27.46 62.61 99 9 234
1860 SI MM 21:00:00 NR -27.71 62.18 924 919 _____P________ -1 -27.71 62.18 99 9 237
1860 SI MM 1860-03-08 00:00:00 NR -27.95 61.74 930 926 _____P________ -1 -27.95 61.74 99 9 240
1860 SI MM 03:00:00 NR -28.18 61.27 934 926 _____P________ -1 -28.18 61.27 99 9 241
1860 SI MM 06:00:00 NR -28.40 60.80 reunion 936 _____O________ -1 -28.40 60.80 99 9.90 9 242